»·PEaware :: SWA258 KBUR-KDEN

SWA258 :: KBUR-KDEN

FLIGHT INFORMATION

Flight Status: Arrived
Operator:
Southwest Airlines
More flights by this operator :: More flights under this callsign
Pilot: Daniel W. (24238)
Aircraft: BOEING 737-700
(B737)
More flights by this aircraft type
Origin: KBUR Bob Hope-Burbank
United States
Destination: KDEN Denver Intl
United States
More flights between these airports :: More routes between these airports
Route: SLAPP2 LAS J146 DICEE BUMMP SSKII1
File this flight plan on PilotEdge
Remarks: PBN / A1D1O1S2T1 NAV / RNVD1E1A1 RNP10 DOF / 201119 REG / N7825A EET / KZDV0048 CODE / AA9AFC PER / C
Altitude:
(Current/Filed)
39,000ft
Speed:
(Current/Filed)
440kts
Departed: 19-Nov-20 07:50 AM
Arrived: 19-Nov-20 09:22 AM
Distance/Time
Traveled:
737nm/1:32
Distance/Time
To Go:
Arrived

Flight Plot

Page will automatically refresh every two minutes.

Flight plan parsing failed; only flown route is shown


Map Options




Map Legend


Flown Route
Filed Route
Departure Airport
Arrival Airport
Navaid (VOR, NDB)
Fix

Horizontal Profiles

Position Reports

Time Latitude Longitude Heading Altitude Ground
Speed
19-Nov-20 07:48 34.710330 -117.612540 90 30845ft 500kts
19-Nov-20 07:49 34.729920 -117.443047 74 32386ft 514kts
19-Nov-20 07:50 34.774942 -117.278317 73 34148ft 512kts
19-Nov-20 07:51 34.818532 -117.113102 73 35701ft 510kts
19-Nov-20 07:52 34.862297 -116.949083 73 37074ft 508kts
19-Nov-20 07:53 34.905240 -116.784828 70 38286ft 508kts
19-Nov-20 07:54 34.982024 -116.642823 45 39204ft 506kts
19-Nov-20 07:55 35.078797 -116.517551 44 39218ft 505kts
19-Nov-20 07:56 35.174192 -116.391606 44 39219ft 506kts
19-Nov-20 07:57 35.269908 -116.264924 45 39220ft 507kts
19-Nov-20 07:58 35.365416 -116.137583 44 39218ft 508kts
19-Nov-20 07:59 35.461228 -116.009754 45 39209ft 509kts
19-Nov-20 08:00 35.556806 -115.881044 45 39205ft 510kts
19-Nov-20 08:01 35.652212 -115.751802 45 39203ft 511kts
19-Nov-20 08:02 35.746888 -115.621244 45 39201ft 511kts
19-Nov-20 08:03 35.841591 -115.490180 45 39202ft 510kts
19-Nov-20 08:04 35.936438 -115.359748 45 39206ft 511kts
19-Nov-20 08:05 36.030728 -115.228240 45 39201ft 514kts
19-Nov-20 08:06 36.106771 -115.078155 68 39187ft 520kts
19-Nov-20 08:07 36.156890 -114.909850 69 39179ft 521kts
19-Nov-20 08:08 36.208036 -114.742556 69 39183ft 521kts
19-Nov-20 08:09 36.259161 -114.574028 69 39199ft 521kts
19-Nov-20 08:10 36.309941 -114.406067 69 39224ft 520kts
19-Nov-20 08:11 36.361053 -114.238357 69 39228ft 520kts
19-Nov-20 08:12 36.411582 -114.070011 70 39231ft 520kts
19-Nov-20 08:13 36.461887 -113.901252 70 39238ft 520kts
19-Nov-20 08:14 36.511796 -113.732797 70 39251ft 520kts
19-Nov-20 08:15 36.561914 -113.563558 70 39260ft 521kts
19-Nov-20 08:16 36.611347 -113.393846 70 39282ft 521kts
19-Nov-20 08:17 36.660490 -113.224215 70 39291ft 522kts
19-Nov-20 08:18 36.709423 -113.053756 70 39299ft 522kts
19-Nov-20 08:19 36.758474 -112.883415 70 39312ft 521kts
19-Nov-20 08:20 36.807432 -112.713709 70 39315ft 520kts
19-Nov-20 08:21 36.855572 -112.542969 71 39318ft 521kts
19-Nov-20 08:22 36.903608 -112.371949 71 39320ft 521kts
19-Nov-20 08:23 36.951146 -112.201448 71 39311ft 522kts
19-Nov-20 08:24 36.998573 -112.029957 71 39295ft 522kts
19-Nov-20 08:25 37.046354 -111.858218 71 39277ft 521kts
19-Nov-20 08:26 37.093645 -111.686718 71 39260ft 522kts
19-Nov-20 08:27 37.141111 -111.514142 71 39251ft 522kts
19-Nov-20 08:28 37.187653 -111.341666 71 39249ft 523kts
19-Nov-20 08:29 37.238936 -111.170986 63 39252ft 522kts
19-Nov-20 08:30 37.304433 -111.008531 62 39256ft 523kts
19-Nov-20 08:31 37.369270 -110.844459 62 39260ft 523kts
19-Nov-20 08:32 37.434426 -110.680786 62 39263ft 523kts
19-Nov-20 08:33 37.499095 -110.516040 62 39283ft 525kts
19-Nov-20 08:34 37.563323 -110.351308 62 39296ft 526kts
19-Nov-20 08:35 37.627732 -110.185207 62 39300ft 527kts
19-Nov-20 08:36 37.692023 -110.018523 62 39316ft 528kts
19-Nov-20 08:37 37.756163 -109.851325 62 39332ft 528kts
19-Nov-20 08:38 37.819901 -109.684252 62 39347ft 528kts
19-Nov-20 08:39 37.883304 -109.517169 62 39349ft 527kts
19-Nov-20 08:40 37.946397 -109.349991 62 39338ft 526kts
19-Nov-20 08:41 38.009606 -109.182480 62 39322ft 527kts
19-Nov-20 08:42 38.072476 -109.013346 62 39302ft 532kts
19-Nov-20 08:43 38.136972 -108.844290 60 39291ft 531kts
19-Nov-20 08:44 38.202790 -108.676469 60 39322ft 530kts
19-Nov-20 08:45 38.268392 -108.508559 60 39325ft 529kts
19-Nov-20 08:46 38.334102 -108.340835 60 39299ft 528kts
19-Nov-20 08:47 38.398782 -108.173067 60 39284ft 528kts
19-Nov-20 08:48 38.463249 -108.004569 61 39266ft 528kts
19-Nov-20 08:49 38.527109 -107.835865 60 39258ft 528kts
19-Nov-20 08:50 38.590965 -107.666245 61 39264ft 529kts
19-Nov-20 08:51 38.654248 -107.496371 61 39276ft 531kts
19-Nov-20 08:52 38.718530 -107.325971 60 39283ft 531kts
19-Nov-20 08:53 38.782366 -107.155711 61 39304ft 531kts
19-Nov-20 08:54 38.846746 -106.984954 60 39302ft 530kts
19-Nov-20 08:55 38.910483 -106.814901 61 39297ft 531kts
19-Nov-20 08:56 38.973757 -106.643265 61 39296ft 531kts
19-Nov-20 08:57 39.037052 -106.471693 61 37060ft 538kts
19-Nov-20 08:58 39.101161 -106.295349 62 33970ft 544kts
19-Nov-20 08:59 39.165603 -106.117052 62 30637ft 547kts
19-Nov-20 09:00 39.228767 -105.943030 62 27966ft 526kts
19-Nov-20 09:01 39.288833 -105.774779 62 25337ft 504kts
19-Nov-20 09:02 39.346539 -105.614450 62 22754ft 482kts
19-Nov-20 09:03 39.401426 -105.463588 62 20932ft 428kts
19-Nov-20 09:04 39.460530 -105.340326 49 19592ft 397kts
19-Nov-20 09:05 39.523843 -105.224274 51 17707ft 391kts
19-Nov-20 09:06 39.584873 -105.111837 51 16152ft 372kts
19-Nov-20 09:07 39.642861 -105.003814 52 14955ft 359kts
19-Nov-20 09:08 39.698882 -104.898904 53 13818ft 346kts
19-Nov-20 09:09 39.773627 -104.841747 1 12703ft 308kts
19-Nov-20 09:10 39.856788 -104.840014 356 11733ft 287kts
19-Nov-20 09:11 39.932835 -104.838916 357 10996ft 258kts
19-Nov-20 09:12 40.004485 -104.837942 357 10998ft 258kts
19-Nov-20 09:13 40.076105 -104.836926 357 11001ft 257kts
19-Nov-20 09:14 40.142810 -104.814639 54 10795ft 260kts
19-Nov-20 09:16 40.124342 -104.735964 137 9606ft 244kts
19-Nov-20 09:17 40.071484 -104.685513 173 8405ft 237kts
19-Nov-20 09:18 40.009604 -104.685489 179 7637ft 204kts
19-Nov-20 09:19 39.959954 -104.686106 176 6674ft 147kts
19-Nov-20 09:20 39.920305 -104.686598 175 5871ft 140kts
19-Nov-20 09:21 39.884628 -104.686962 180 5442ft 76kts
19-Nov-20 09:22 39.872382 -104.685766 150 5442ft 11kts
19-Nov-20 09:23 39.869201 -104.685012 180 5442ft 21kts
19-Nov-20 09:24 39.862987 -104.685077 180 5442ft 22kts
19-Nov-20 09:25 39.861416 -104.680198 90 5442ft 19kts
19-Nov-20 09:26 39.861742 -104.672966 62 5442ft 18kts
19-Nov-20 09:27 39.862629 -104.671552 0 5442ft 0kts
19-Nov-20 09:28 39.862629 -104.671552 0 5442ft 0kts

Navigation Log

Ident Type
Flight plan parsing failed, navigation log unavailable